Time;durP1;ratioP1;P1;durP2;ratioP2;P2;SDS_P1;SDS_P2;PMS_P1;PMS_P2;Temp;Humidity;BMP_temperature;BMP_pressure;BME280_temperature;BME280_humidity;BME280_pressure;Samples;Min_cycle;Max_cycle;Signal;HPM_P1;HPM_P2
2022/08/30 00:01:25;;;;;;;3.93;2.03;;;22.20;57.90;;;;;;5015384;28;20516;-82
2022/08/30 00:03:53;;;;;;;2.57;2.37;;;22.20;58.20;;;;;;5010154;28;20464;-83
2022/08/30 00:06:22;;;;;;;2.97;2.40;;;22.30;58.20;;;;;;5011844;28;20450;-85
2022/08/30 00:08:49;;;;;;;3.90;2.50;;;22.50;57.80;;;;;;5013022;28;20482;-83
2022/08/30 00:11:26;;;;;;;2.90;2.50;;;22.50;57.90;;;;;;5013424;28;20458;-83
2022/08/30 00:13:55;;;;;;;2.27;2.10;;;22.40;58.20;;;;;;5015101;28;20442;-83
2022/08/30 00:16:23;;;;;;;4.27;2.53;;;22.40;58.10;;;;;;5017231;28;20462;-82
2022/08/30 00:18:50;;;;;;;3.80;2.23;;;22.40;58.00;;;;;;5018585;28;20892;-82
2022/08/30 00:21:17;;;;;;;2.37;1.73;;;22.50;58.10;;;;;;5019979;28;20958;-82
2022/08/30 00:23:43;;;;;;;2.60;2.20;;;22.50;58.00;;;;;;5020135;28;20465;-84
2022/08/30 00:26:10;;;;;;;2.37;2.13;;;22.60;57.80;;;;;;5027547;28;20457;-82
2022/08/30 00:28:37;;;;;;;3.73;2.53;;;22.50;58.00;;;;;;5020366;28;20480;-84
2022/08/30 00:31:04;;;;;;;2.93;2.50;;;22.40;58.50;;;;;;5021183;28;20446;-85
2022/08/30 00:33:31;;;;;;;2.60;2.40;;;22.50;58.00;;;;;;5020711;28;20446;-83
2022/08/30 00:35:58;;;;;;;2.53;2.00;;;22.60;58.00;;;;;;5016221;28;20465;-83
2022/08/30 00:38:25;;;;;;;3.33;2.40;;;22.50;57.80;;;;;;5020547;28;20469;-82
2022/08/30 00:40:52;;;;;;;4.83;2.33;;;22.60;58.00;;;;;;5019718;28;20826;-83
2022/08/30 00:43:28;;;;;;;3.07;2.03;;;22.60;57.90;;;;;;5019031;28;20846;-83
2022/08/30 00:45:55;;;;;;;4.13;3.03;;;22.60;57.90;;;;;;5020490;28;20445;-84
2022/08/30 00:48:23;;;;;;;2.40;2.20;;;22.70;57.80;;;;;;5016375;28;20860;-84
2022/08/30 00:51:03;;;;;;;2.87;2.27;;;22.70;57.70;;;;;;5020657;28;21261;-85
2022/08/30 00:53:35;;;;;;;3.90;2.07;;;22.60;57.80;;;;;;5014309;28;20470;-84
2022/08/30 00:56:04;;;;;;;6.70;2.73;;;22.60;57.90;;;;;;5020573;28;20461;-82
2022/08/30 00:58:35;;;;;;;2.87;2.40;;;22.60;58.00;;;;;;5018988;28;20446;-83
2022/08/30 01:01:04;;;;;;;3.73;2.50;;;22.80;57.70;;;;;;5020849;28;20465;-83
2022/08/30 01:03:32;;;;;;;3.97;2.60;;;22.80;57.60;;;;;;5021712;28;20462;-82
2022/08/30 01:06:00;;;;;;;2.77;2.07;;;22.60;57.70;;;;;;5022591;28;21276;-82
2022/08/30 01:08:26;;;;;;;2.90;2.37;;;22.60;58.10;;;;;;5020525;28;20484;-86
2022/08/30 01:10:55;;;;;;;2.90;2.20;;;22.60;58.20;;;;;;5018764;28;20515;-85
2022/08/30 01:13:24;;;;;;;2.20;2.00;;;22.40;58.40;;;;;;5015941;28;20450;-83
2022/08/30 01:15:52;;;;;;;2.43;2.23;;;22.40;58.80;;;;;;5019988;28;20447;-83
2022/08/30 01:18:20;;;;;;;2.80;2.10;;;22.40;58.90;;;;;;5018183;28;20489;-83
2022/08/30 01:20:50;;;;;;;2.80;2.17;;;22.40;58.90;;;;;;5020473;28;20446;-85
2022/08/30 01:23:20;;;;;;;2.30;2.10;;;22.30;59.10;;;;;;5018691;28;20465;-84
2022/08/30 01:25:48;;;;;;;4.53;1.97;;;22.40;59.10;;;;;;5018077;28;20454;-83
2022/08/30 01:28:22;;;;;;;6.67;2.40;;;22.40;59.00;;;;;;5021276;28;20493;-82
2022/08/30 01:30:48;;;;;;;2.40;2.20;;;22.40;59.00;;;;;;5022045;28;20447;-83
2022/08/30 01:33:18;;;;;;;3.27;2.40;;;22.40;58.90;;;;;;5024262;28;20454;-82
2022/08/30 01:35:52;;;;;;;6.27;2.83;;;22.60;58.80;;;;;;5023659;28;20455;-83
2022/08/30 01:38:21;;;;;;;6.43;2.57;;;22.60;58.80;;;;;;5031685;28;20474;-83
2022/08/30 01:40:55;;;;;;;2.33;2.13;;;22.50;59.20;;;;;;5031470;28;20462;-81
2022/08/30 01:43:22;;;;;;;6.30;2.67;;;22.40;59.50;;;;;;5016440;28;20453;-81
2022/08/30 01:45:48;;;;;;;4.70;2.30;;;22.30;59.70;;;;;;5019550;28;20466;-84
2022/08/30 01:48:20;;;;;;;3.47;3.00;;;22.20;59.90;;;;;;5033664;28;20460;-84
2022/08/30 01:50:47;;;;;;;2.37;2.17;;;22.00;60.30;;;;;;5035798;28;20456;-83
2022/08/30 01:53:14;;;;;;;2.70;2.50;;;22.10;60.60;;;;;;5018434;28;20478;-80
2022/08/30 01:55:42;;;;;;;4.50;2.63;;;22.10;60.30;;;;;;5028172;28;20538;-82
2022/08/30 01:58:09;;;;;;;2.77;2.37;;;22.00;60.50;;;;;;5006581;28;20485;-83
2022/08/30 02:00:35;;;;;;;2.73;2.53;;;21.90;60.90;;;;;;5021644;28;20459;-82
2022/08/30 02:03:03;;;;;;;3.10;2.90;;;21.80;61.20;;;;;;5021636;28;20457;-83
2022/08/30 02:05:30;;;;;;;2.63;2.30;;;21.90;61.50;;;;;;5018348;28;20458;-83
2022/08/30 02:07:57;;;;;;;4.20;2.53;;;22.00;61.60;;;;;;5012168;28;20483;-83
2022/08/30 02:10:25;;;;;;;2.47;2.10;;;22.10;61.20;;;;;;5012592;28;20489;-83
2022/08/30 02:12:54;;;;;;;3.50;2.57;;;22.10;60.60;;;;;;5013236;28;20458;-84
2022/08/30 02:15:20;;;;;;;3.57;1.90;;;22.00;61.00;;;;;;5014380;28;20463;-82
2022/08/30 02:17:47;;;;;;;2.60;2.40;;;22.00;61.50;;;;;;5017012;28;20478;-80
2022/08/30 02:20:14;;;;;;;2.50;2.10;;;22.10;61.20;;;;;;5011017;28;20866;-83
2022/08/30 02:22:41;;;;;;;3.30;2.60;;;22.00;61.00;;;;;;5011501;28;20450;-82
2022/08/30 02:25:09;;;;;;;4.57;3.00;;;21.90;61.20;;;;;;5017934;28;20459;-83
2022/08/30 02:27:40;;;;;;;4.63;2.33;;;21.90;62.00;;;;;;5018377;28;20493;-85
2022/08/30 02:30:08;;;;;;;3.87;3.10;;;21.90;61.90;;;;;;5025838;28;20505;-80
2022/08/30 02:32:35;;;;;;;2.50;2.23;;;21.90;61.80;;;;;;5019921;28;20454;-82
2022/08/30 02:35:02;;;;;;;3.97;2.37;;;21.90;62.10;;;;;;5011870;28;21161;-83
2022/08/30 02:37:29;;;;;;;3.60;2.20;;;21.80;62.20;;;;;;5010695;28;20481;-83
2022/08/30 02:39:56;;;;;;;2.73;2.50;;;21.80;62.50;;;;;;5015226;28;20459;-83
2022/08/30 02:42:22;;;;;;;2.60;2.40;;;21.80;62.50;;;;;;5016663;28;20537;-83
2022/08/30 02:44:49;;;;;;;4.23;2.40;;;21.90;63.00;;;;;;5002300;28;20465;-84
2022/08/30 02:47:16;;;;;;;2.53;2.33;;;21.90;63.00;;;;;;5010746;28;20484;-84
2022/08/30 02:49:42;;;;;;;2.53;2.10;;;22.00;62.60;;;;;;5013532;28;20505;-83
2022/08/30 02:52:09;;;;;;;3.17;2.47;;;21.90;62.80;;;;;;5011387;28;20838;-83
2022/08/30 02:54:36;;;;;;;2.60;2.30;;;21.90;63.20;;;;;;5006444;28;20454;-84
2022/08/30 02:57:05;;;;;;;3.90;2.37;;;21.80;63.50;;;;;;5011529;28;20827;-83
2022/08/30 02:59:32;;;;;;;2.40;2.20;;;21.90;63.80;;;;;;5010832;28;20454;-83
2022/08/30 03:01:59;;;;;;;3.10;2.33;;;21.80;63.80;;;;;;5006838;28;20961;-83
2022/08/30 03:04:25;;;;;;;2.30;2.00;;;21.70;64.00;;;;;;5007550;28;20451;-83
2022/08/30 03:06:52;;;;;;;2.60;2.40;;;21.80;64.30;;;;;;5018698;28;20521;-84
2022/08/30 03:09:21;;;;;;;8.43;2.10;;;21.80;64.40;;;;;;5016727;28;20494;-84
2022/08/30 03:11:47;;;;;;;4.20;2.50;;;21.90;64.20;;;;;;5017599;28;20456;-83
2022/08/30 03:14:15;;;;;;;3.30;2.00;;;21.80;64.50;;;;;;5011161;28;20454;-83
2022/08/30 03:16:41;;;;;;;3.27;2.50;;;21.80;64.60;;;;;;5017565;28;20478;-85
2022/08/30 03:19:08;;;;;;;3.33;2.17;;;21.80;64.50;;;;;;5017667;28;20538;-84
2022/08/30 03:21:36;;;;;;;4.20;2.00;;;21.70;64.80;;;;;;5017749;28;20466;-84
2022/08/30 03:24:03;;;;;;;3.17;2.10;;;21.60;65.30;;;;;;5010492;28;20913;-83
2022/08/30 03:26:30;;;;;;;2.50;2.20;;;21.70;65.90;;;;;;5015047;28;20505;-83
2022/08/30 03:28:57;;;;;;;5.27;3.70;;;21.70;65.90;;;;;;5006246;28;20493;-83
2022/08/30 03:31:23;;;;;;;3.90;3.00;;;21.70;65.80;;;;;;5010534;28;20550;-83
2022/08/30 03:33:52;;;;;;;3.10;2.80;;;21.60;65.90;;;;;;5000248;28;20478;-83
2022/08/30 03:36:19;;;;;;;3.90;2.53;;;21.60;66.30;;;;;;5017819;28;20461;-83
2022/08/30 03:38:45;;;;;;;3.83;2.90;;;21.50;66.80;;;;;;5021015;28;20960;-82
2022/08/30 03:41:12;;;;;;;4.63;3.40;;;21.50;67.40;;;;;;5007279;28;20454;-84
2022/08/30 03:43:40;;;;;;;3.10;2.40;;;21.50;67.50;;;;;;5012556;28;20449;-82
2022/08/30 03:46:07;;;;;;;4.30;2.97;;;21.50;67.70;;;;;;5014397;28;20457;-84
2022/08/30 03:48:35;;;;;;;6.17;2.70;;;21.60;67.40;;;;;;5016938;28;20458;-84
2022/08/30 03:51:02;;;;;;;3.70;3.00;;;21.50;67.40;;;;;;5015951;28;20489;-84
2022/08/30 03:53:29;;;;;;;3.43;3.13;;;21.50;67.70;;;;;;5014926;28;20911;-83
2022/08/30 03:55:55;;;;;;;3.87;2.60;;;21.50;68.00;;;;;;5012555;28;20454;-82
2022/08/30 03:58:23;;;;;;;3.50;3.10;;;21.40;68.10;;;;;;5014540;28;20470;-83
2022/08/30 04:00:49;;;;;;;3.80;2.70;;;21.40;68.60;;;;;;5019044;28;20449;-83
2022/08/30 04:03:17;;;;;;;3.57;2.83;;;21.30;69.00;;;;;;5026101;28;20485;-81
2022/08/30 04:05:44;;;;;;;3.20;2.43;;;21.40;69.60;;;;;;5035022;28;20510;-83
2022/08/30 04:08:10;;;;;;;4.50;2.53;;;21.30;69.50;;;;;;5031317;28;20474;-85
2022/08/30 04:10:37;;;;;;;2.30;2.13;;;21.30;69.90;;;;;;5019075;28;20466;-82
2022/08/30 04:13:04;;;;;;;3.30;2.60;;;21.50;69.40;;;;;;5023782;28;20450;-85
2022/08/30 04:15:31;;;;;;;3.03;2.33;;;21.30;69.40;;;;;;5030341;28;20438;-83
2022/08/30 04:17:57;;;;;;;2.60;2.33;;;21.20;70.10;;;;;;5029669;28;20456;-85
2022/08/30 04:20:24;;;;;;;2.60;2.40;;;21.30;70.10;;;;;;5021427;28;20464;-83
2022/08/30 04:22:51;;;;;;;5.17;2.77;;;21.30;70.30;;;;;;5012276;28;20447;-85
2022/08/30 04:25:18;;;;;;;4.10;2.67;;;21.30;70.40;;;;;;5013257;28;20450;-81
2022/08/30 04:27:46;;;;;;;3.03;2.40;;;21.20;71.20;;;;;;5013176;28;20508;-83
2022/08/30 04:30:15;;;;;;;3.53;2.53;;;21.20;71.50;;;;;;5012810;28;22436;-83
2022/08/30 04:32:43;;;;;;;3.43;2.50;;;21.10;71.90;;;;;;5013904;28;21096;-84
2022/08/30 04:35:11;;;;;;;3.73;2.50;;;21.20;72.30;;;;;;5009567;28;20458;-84
2022/08/30 04:37:38;;;;;;;3.70;2.63;;;21.10;72.20;;;;;;5013897;28;20505;-84
2022/08/30 04:40:05;;;;;;;3.10;2.77;;;21.00;72.80;;;;;;5011862;28;20497;-83
2022/08/30 04:42:34;;;;;;;4.20;2.43;;;21.00;73.30;;;;;;5013092;28;20458;-82
2022/08/30 04:45:05;;;;;;;3.40;3.10;;;21.00;73.70;;;;;;5013525;28;20512;-84
2022/08/30 04:47:31;;;;;;;3.00;2.70;;;21.00;74.10;;;;;;5012394;28;20828;-84
2022/08/30 04:49:58;;;;;;;3.30;2.50;;;21.10;74.70;;;;;;5011945;28;20486;-84
2022/08/30 04:52:25;;;;;;;8.03;3.10;;;21.10;74.80;;;;;;5015125;28;20464;-87
2022/08/30 04:54:56;;;;;;;5.10;2.67;;;21.00;75.10;;;;;;5011291;28;20467;-82
2022/08/30 04:57:24;;;;;;;4.00;2.90;;;21.00;75.20;;;;;;5009644;28;20484;-82
2022/08/30 04:59:51;;;;;;;4.20;2.90;;;21.00;76.40;;;;;;5009613;28;20462;-83
2022/08/30 05:02:19;;;;;;;4.97;3.10;;;21.10;76.00;;;;;;5013738;28;20453;-83
2022/08/30 05:07:31;;;;;;;4.27;2.80;;;21.20;75.60;;;;;;5021167;28;20497;-84
2022/08/30 05:09:58;;;;;;;3.50;2.97;;;21.10;75.60;;;;;;4993468;28;20600;-81
2022/08/30 05:12:26;;;;;;;3.43;2.77;;;21.20;75.30;;;;;;4996225;28;21034;-82
2022/08/30 05:14:53;;;;;;;4.13;2.60;;;21.30;74.90;;;;;;5012638;28;20461;-83
2022/08/30 05:17:21;;;;;;;6.90;2.50;;;21.20;75.20;;;;;;5012483;28;20466;-86
2022/08/30 05:19:47;;;;;;;2.90;2.57;;;21.20;75.70;;;;;;5013091;28;20839;-84
2022/08/30 05:22:14;;;;;;;4.90;2.80;;;21.20;75.90;;;;;;5015229;28;20458;-84
2022/08/30 05:24:43;;;;;;;9.30;2.73;;;21.20;76.40;;;;;;5013734;28;20457;-82
2022/08/30 05:27:10;;;;;;;8.10;2.70;;;21.20;76.60;;;;;;5012299;28;20906;-82
2022/08/30 05:29:37;;;;;;;3.30;3.00;;;21.10;77.30;;;;;;5015865;28;20621;-83
2022/08/30 05:32:04;;;;;;;3.43;2.43;;;21.10;77.70;;;;;;5013675;28;20503;-83
2022/08/30 05:34:30;;;;;;;5.13;2.80;;;21.40;76.90;;;;;;5016208;28;20450;-83
2022/08/30 05:36:58;;;;;;;5.33;3.20;;;21.30;75.70;;;;;;5013213;28;20520;-81
2022/08/30 05:39:25;;;;;;;6.87;2.87;;;21.30;76.20;;;;;;5014477;28;20452;-83
2022/08/30 05:41:56;;;;;;;3.20;2.90;;;21.30;75.90;;;;;;5013406;28;20457;-84
2022/08/30 05:44:23;;;;;;;4.73;2.80;;;21.40;76.00;;;;;;5010338;28;20461;-85
2022/08/30 05:46:52;;;;;;;4.20;2.50;;;21.30;76.10;;;;;;5013310;28;20568;-82
2022/08/30 05:49:19;;;;;;;3.17;2.53;;;21.30;76.30;;;;;;5012489;28;20458;-83
2022/08/30 05:51:46;;;;;;;4.50;3.70;;;21.30;76.20;;;;;;5016004;28;20462;-82
2022/08/30 05:54:14;;;;;;;4.50;2.60;;;21.30;76.50;;;;;;5015747;28;20454;-85
2022/08/30 05:56:44;;;;;;;6.57;2.83;;;21.30;76.30;;;;;;5014738;28;20508;-82
2022/08/30 05:59:11;;;;;;;4.07;3.00;;;21.60;75.60;;;;;;5014489;28;20908;-84
2022/08/30 06:01:41;;;;;;;4.07;3.37;;;21.80;74.50;;;;;;5012051;28;20546;-82
2022/08/30 06:04:10;;;;;;;3.80;3.03;;;21.70;74.80;;;;;;5015021;28;20461;-83
2022/08/30 06:06:39;;;;;;;4.23;3.10;;;21.90;74.60;;;;;;5013489;28;20516;-83
2022/08/30 06:09:07;;;;;;;4.57;3.33;;;22.60;73.10;;;;;;5014880;28;20457;-85
2022/08/30 06:11:34;;;;;;;5.60;4.10;;;23.80;69.30;;;;;;5013620;28;20491;-83
2022/08/30 06:14:02;;;;;;;3.67;2.47;;;24.10;67.10;;;;;;5017137;28;20951;-86
2022/08/30 06:16:29;;;;;;;5.73;2.30;;;24.20;65.60;;;;;;5014413;28;20489;-85
2022/08/30 06:18:57;;;;;;;5.43;3.93;;;24.90;65.20;;;;;;5014694;28;20903;-84
2022/08/30 06:21:27;;;;;;;7.47;3.60;;;26.40;60.10;;;;;;5011362;28;20458;-83
2022/08/30 06:23:56;;;;;;;4.87;2.83;;;26.60;57.90;;;;;;5014521;28;20460;-84
2022/08/30 06:26:24;;;;;;;5.57;3.23;;;25.60;58.40;;;;;;5005439;28;20455;-81
2022/08/30 06:28:51;;;;;;;4.60;3.10;;;24.50;61.20;;;;;;5015051;28;20449;-83
2022/08/30 06:31:21;;;;;;;4.40;2.80;;;24.10;64.40;;;;;;5013041;28;20488;-84
2022/08/30 06:33:48;;;;;;;5.10;3.20;;;24.40;64.00;;;;;;5014607;28;20482;-83
2022/08/30 06:36:19;;;;;;;3.40;3.07;;;24.80;62.50;;;;;;5012429;28;20458;-84
2022/08/30 06:38:49;;;;;;;4.00;3.10;;;24.10;63.10;;;;;;5013647;28;20459;-84
2022/08/30 06:41:18;;;;;;;4.03;2.93;;;23.80;66.50;;;;;;5014795;28;20462;-85
2022/08/30 06:43:46;;;;;;;5.17;3.03;;;23.70;66.50;;;;;;5014743;28;20550;-81
2022/08/30 06:46:18;;;;;;;5.27;3.17;;;23.70;67.30;;;;;;5016164;28;20458;-84
2022/08/30 06:48:45;;;;;;;6.93;3.53;;;23.50;66.90;;;;;;5015299;28;20453;-83
2022/08/30 06:51:13;;;;;;;6.87;3.20;;;23.10;68.60;;;;;;5014671;28;20474;-82
2022/08/30 06:53:41;;;;;;;7.20;3.40;;;23.10;71.40;;;;;;5015674;28;20473;-86
2022/08/30 06:56:10;;;;;;;4.37;3.47;;;24.90;69.60;;;;;;5014830;28;20465;-84
2022/08/30 06:58:42;;;;;;;4.80;3.57;;;27.10;60.30;;;;;;5017736;28;20456;-84
2022/08/30 07:01:18;;;;;;;4.30;3.20;;;28.50;56.10;;;;;;5031345;28;20465;-84
2022/08/30 07:03:45;;;;;;;4.30;2.73;;;29.40;52.50;;;;;;5029707;28;20480;-84
2022/08/30 07:06:12;;;;;;;5.80;3.30;;;27.40;53.70;;;;;;5030172;28;21518;-83
2022/08/30 07:08:40;;;;;;;4.30;3.17;;;27.20;56.50;;;;;;5020324;28;20469;-84
2022/08/30 07:11:07;;;;;;;4.30;3.00;;;28.90;53.80;;;;;;5011767;28;20492;-84
2022/08/30 07:13:35;;;;;;;2.60;2.40;;;29.50;52.00;;;;;;5012776;28;20464;-84
2022/08/30 07:16:11;;;;;;;3.17;2.87;;;30.20;50.50;;;;;;5012074;28;20459;-85
2022/08/30 07:18:53;;;;;;;5.50;3.27;;;31.10;49.10;;;;;;5015941;28;20456;-82
2022/08/30 07:21:37;;;;;;;4.43;2.97;;;32.70;46.90;;;;;;5011840;28;20473;-83
2022/08/30 07:24:05;;;;;;;5.80;2.57;;;33.80;43.70;;;;;;5003357;28;20465;-84
2022/08/30 07:26:40;;;;;;;3.43;2.70;;;32.50;43.40;;;;;;5018131;28;20450;-83
2022/08/30 07:29:07;;;;;;;5.63;2.90;;;31.00;45.70;;;;;;5012153;28;20449;-81
2022/08/30 07:31:34;;;;;;;3.60;2.97;;;30.10;47.70;;;;;;5011579;28;20481;-82
2022/08/30 07:34:03;;;;;;;5.00;3.30;;;29.70;48.10;;;;;;5012160;28;20450;-85
2022/08/30 07:36:31;;;;;;;3.97;2.80;;;30.40;48.60;;;;;;5012272;28;20470;-84
2022/08/30 07:38:58;;;;;;;4.07;2.90;;;31.30;46.50;;;;;;5021499;28;20469;-84
2022/08/30 07:41:31;;;;;;;3.53;2.80;;;32.10;45.80;;;;;;5015700;28;20585;-83
2022/08/30 07:43:58;;;;;;;2.77;2.57;;;33.00;43.90;;;;;;5003670;28;20468;-84
2022/08/30 07:46:26;;;;;;;3.10;2.60;;;32.80;43.30;;;;;;5011699;28;20481;-84
2022/08/30 07:48:54;;;;;;;3.00;2.70;;;32.80;43.10;;;;;;5009768;28;20486;-85
2022/08/30 07:51:24;;;;;;;6.03;2.40;;;34.20;41.50;;;;;;4987292;28;20477;-84
2022/08/30 07:53:52;;;;;;;3.43;2.30;;;34.70;40.30;;;;;;5008810;28;20471;-86
2022/08/30 07:56:19;;;;;;;2.60;2.40;;;34.40;39.90;;;;;;5009481;28;20462;-85
2022/08/30 07:58:47;;;;;;;4.40;2.77;;;34.90;39.20;;;;;;5008103;28;20550;-85
2022/08/30 08:01:14;;;;;;;2.53;2.33;;;34.40;39.10;;;;;;5008362;28;20502;-83
2022/08/30 08:03:42;;;;;;;3.60;2.37;;;34.00;39.80;;;;;;5014221;28;20573;-83
2022/08/30 08:06:12;;;;;;;4.33;2.90;;;33.50;40.40;;;;;;5004312;28;20493;-85
2022/08/30 08:08:40;;;;;;;4.00;2.70;;;33.50;40.00;;;;;;5021558;28;20438;-86
2022/08/30 08:11:11;;;;;;;4.10;2.37;;;32.70;40.50;;;;;;5015924;28;20495;-85
2022/08/30 08:13:39;;;;;;;2.43;2.23;;;32.50;41.30;;;;;;5027344;28;20456;-81
2022/08/30 08:16:10;;;;;;;3.50;2.60;;;32.70;40.80;;;;;;5027315;28;20453;-84
2022/08/30 08:18:37;;;;;;;4.73;2.50;;;31.50;41.80;;;;;;5026958;28;20446;-81
2022/08/30 08:21:04;;;;;;;3.73;2.47;;;31.00;43.30;;;;;;5025124;28;20458;-82
2022/08/30 08:23:31;;;;;;;3.40;2.70;;;31.30;42.90;;;;;;5027684;28;20436;-84
2022/08/30 08:25:58;;;;;;;6.97;2.30;;;32.20;41.90;;;;;;5019056;28;20452;-84
2022/08/30 08:28:25;;;;;;;2.80;2.47;;;32.50;41.90;;;;;;5015501;28;20621;-83
2022/08/30 08:30:52;;;;;;;2.63;2.40;;;33.60;40.20;;;;;;5014508;28;20481;-83
2022/08/30 08:33:19;;;;;;;2.40;2.20;;;34.00;38.90;;;;;;5015635;28;20458;-83
2022/08/30 08:35:46;;;;;;;3.83;2.10;;;34.20;38.70;;;;;;5013038;28;20467;-84
2022/08/30 08:38:12;;;;;;;2.90;2.43;;;35.20;37.20;;;;;;5019200;28;21858;-84
2022/08/30 08:40:58;;;;;;;2.43;2.20;;;35.50;36.70;;;;;;5029498;28;20484;-82
2022/08/30 08:43:25;;;;;;;2.83;2.60;;;36.30;34.80;;;;;;5017748;28;20462;-82
2022/08/30 08:45:58;;;;;;;4.20;2.40;;;35.60;35.80;;;;;;5019198;28;20448;-83
2022/08/30 08:48:33;;;;;;;3.57;2.73;;;36.10;34.70;;;;;;5020878;28;20493;-84
2022/08/30 08:54:18;;;;;;;2.20;2.00;;;34.60;35.90;;;;;;5017461;28;20468;-83
2022/08/30 08:56:44;;;;;;;2.60;2.40;;;34.70;35.90;;;;;;5019269;28;20472;-84
2022/08/30 08:59:15;;;;;;;4.03;2.47;;;35.40;35.40;;;;;;5016764;28;20453;-83
2022/08/30 09:01:42;;;;;;;4.20;2.30;;;35.30;35.10;;;;;;5019213;28;21061;-84
2022/08/30 09:04:14;;;;;;;3.33;2.33;;;34.60;35.30;;;;;;5016148;28;20517;-84
2022/08/30 09:06:47;;;;;;;2.47;2.27;;;34.80;36.30;;;;;;5016880;28;20933;-84
2022/08/30 09:09:18;;;;;;;3.20;2.50;;;35.70;35.10;;;;;;5022614;28;20455;-85
2022/08/30 09:11:46;;;;;;;3.13;2.67;;;35.80;34.30;;;;;;5016444;28;20474;-84
2022/08/30 09:14:18;;;;;;;5.70;2.40;;;35.60;34.40;;;;;;5019720;28;21297;-84
2022/08/30 09:16:58;;;;;;;4.17;2.50;;;36.10;33.80;;;;;;5021076;28;20470;-84
2022/08/30 09:19:39;;;;;;;4.00;2.57;;;36.30;33.00;;;;;;5020391;28;20476;-85
2022/08/30 09:22:25;;;;;;;4.73;2.17;;;36.30;33.00;;;;;;5019050;28;20519;-85
2022/08/30 09:25:03;;;;;;;4.07;2.37;;;36.40;32.90;;;;;;5019966;28;20453;-85
2022/08/30 09:27:51;;;;;;;3.07;2.30;;;36.50;33.10;;;;;;5020679;28;20485;-84
2022/08/30 09:30:28;;;;;;;7.03;2.60;;;36.40;33.20;;;;;;5021693;28;20530;-87
2022/08/30 09:33:01;;;;;;;2.53;2.33;;;36.00;33.70;;;;;;5028980;28;20508;-84
2022/08/30 09:35:42;;;;;;;3.80;2.40;;;35.80;33.10;;;;;;5031062;28;20556;-86
2022/08/30 09:38:25;;;;;;;3.47;2.30;;;34.40;34.70;;;;;;5027559;28;20457;-84
2022/08/30 09:40:55;;;;;;;2.87;2.40;;;32.90;36.50;;;;;;5027520;28;20450;-84
2022/08/30 09:43:26;;;;;;;4.33;2.73;;;31.70;38.70;;;;;;5018278;28;20548;-83
2022/08/30 09:46:00;;;;;;;2.87;2.67;;;30.60;40.00;;;;;;5025883;28;21376;-83
2022/08/30 09:48:31;;;;;;;4.63;2.23;;;29.70;41.90;;;;;;5030049;28;20505;-85
2022/08/30 09:51:11;;;;;;;4.07;2.63;;;29.70;42.30;;;;;;5030387;28;20470;-82
2022/08/30 09:54:06;;;;;;;6.03;2.60;;;29.60;42.90;;;;;;5019151;28;20449;-83
2022/08/30 09:57:14;;;;;;;3.20;2.80;;;29.60;43.00;;;;;;5016674;28;20616;-82
2022/08/30 10:00:06;;;;;;;2.20;2.10;;;30.50;41.20;;;;;;5019261;28;20453;-82
2022/08/30 10:02:47;;;;;;;2.67;2.00;;;31.20;40.10;;;;;;5017338;28;20485;-83
2022/08/30 10:05:41;;;;;;;3.17;2.23;;;32.40;37.50;;;;;;5012163;28;20577;-84
2022/08/30 10:08:37;;;;;;;2.77;2.00;;;33.10;36.20;;;;;;5031401;28;20501;-86
2022/08/30 10:11:13;;;;;;;3.13;2.60;;;33.00;35.80;;;;;;5010756;28;20480;-85
2022/08/30 10:13:49;;;;;;;3.50;2.30;;;33.20;35.90;;;;;;5003075;28;20441;-85
2022/08/30 10:16:25;;;;;;;4.03;2.37;;;33.40;35.10;;;;;;5033699;28;21027;-84
2022/08/30 10:18:58;;;;;;;4.93;2.40;;;32.50;35.80;;;;;;5017395;28;20442;-83
2022/08/30 10:21:33;;;;;;;2.87;2.20;;;32.10;36.30;;;;;;5016847;28;20437;-84
2022/08/30 10:24:12;;;;;;;2.90;2.20;;;32.60;36.10;;;;;;5014572;28;20455;-85
2022/08/30 10:26:52;;;;;;;2.53;2.03;;;33.60;33.90;;;;;;5013172;28;20477;-84
2022/08/30 10:29:35;;;;;;;3.37;2.50;;;34.20;33.50;;;;;;5013310;28;20528;-86
2022/08/30 10:32:17;;;;;;;2.33;2.13;;;34.40;33.80;;;;;;5016487;28;20536;-85
2022/08/30 10:35:10;;;;;;;2.83;2.37;;;35.30;32.20;;;;;;5016693;28;20462;-84
2022/08/30 10:37:41;;;;;;;2.63;2.30;;;34.60;32.60;;;;;;5014518;28;20496;-84
2022/08/30 10:43:36;;;;;;;2.20;2.00;;;33.20;34.10;;;;;;5013667;28;20544;-84
2022/08/30 10:46:08;;;;;;;3.10;1.97;;;33.10;34.40;;;;;;5011469;28;20490;-84
2022/08/30 10:48:40;;;;;;;2.90;2.00;;;32.30;35.30;;;;;;5014231;28;20585;-85
2022/08/30 10:51:26;;;;;;;3.33;2.60;;;31.80;36.00;;;;;;5016441;28;20461;-84
2022/08/30 10:54:18;;;;;;;3.70;2.50;;;31.30;37.20;;;;;;5013474;28;20446;-85
2022/08/30 10:56:48;;;;;;;2.30;2.10;;;30.80;38.30;;;;;;5011106;28;20548;-82
2022/08/30 10:59:20;;;;;;;3.10;2.50;;;30.30;38.60;;;;;;5012062;28;21190;-85
2022/08/30 11:02:14;;;;;;;7.23;2.70;;;30.30;39.00;;;;;;5019462;28;20473;-84
2022/08/30 11:05:06;;;;;;;3.20;2.50;;;30.50;38.60;;;;;;5012706;28;20470;-86
2022/08/30 11:07:35;;;;;;;3.63;2.40;;;30.70;38.90;;;;;;5012447;28;21416;-84
2022/08/30 11:10:20;;;;;;;3.77;2.77;;;30.70;37.90;;;;;;5012097;28;20466;-83
2022/08/30 11:13:03;;;;;;;3.27;2.67;;;30.50;38.20;;;;;;5017128;28;20474;-83
2022/08/30 11:15:35;;;;;;;3.23;2.50;;;30.90;39.20;;;;;;5011826;28;20453;-85
2022/08/30 11:18:13;;;;;;;3.90;2.27;;;31.40;36.80;;;;;;5000391;28;20490;-82
2022/08/30 11:20:48;;;;;;;2.77;1.93;;;30.90;37.20;;;;;;5015166;28;20589;-83
2022/08/30 11:23:15;;;;;;;4.97;1.90;;;30.40;37.50;;;;;;5014380;28;20425;-82
2022/08/30 11:25:58;;;;;;;2.30;2.10;;;30.60;38.00;;;;;;5016533;28;20445;-82
2022/08/30 11:28:34;;;;;;;2.77;2.47;;;31.90;37.00;;;;;;5013648;28;20468;-82
2022/08/30 11:31:08;;;;;;;3.10;2.80;;;32.90;35.00;;;;;;5012476;28;20523;-85
2022/08/30 11:33:41;;;;;;;3.83;2.87;;;33.00;34.50;;;;;;5014083;28;20454;-85
2022/08/30 11:36:10;;;;;;;2.33;2.13;;;32.70;34.30;;;;;;5013689;28;20466;-84
2022/08/30 11:38:37;;;;;;;5.10;2.73;;;32.30;35.20;;;;;;5013662;28;20461;-84
2022/08/30 11:41:30;;;;;;;3.03;2.23;;;33.10;34.90;;;;;;5015717;28;20482;-84
2022/08/30 11:44:28;;;;;;;6.40;2.67;;;33.60;34.30;;;;;;5001851;28;20565;-84
2022/08/30 11:46:57;;;;;;;2.90;2.60;;;33.70;33.80;;;;;;5007406;28;20518;-82
2022/08/30 11:49:56;;;;;;;4.20;3.00;;;32.90;35.30;;;;;;5009402;28;20457;-83
2022/08/30 11:52:34;;;;;;;4.57;2.57;;;32.90;34.80;;;;;;5011713;28;20893;-84
2022/08/30 11:55:33;;;;;;;3.50;2.30;;;32.60;35.50;;;;;;5012753;28;20458;-84
2022/08/30 11:58:27;;;;;;;5.90;3.03;;;32.90;35.50;;;;;;5012525;28;20544;-83
2022/08/30 12:01:15;;;;;;;2.73;2.20;;;33.40;35.10;;;;;;5007603;28;20458;-84
2022/08/30 12:04:11;;;;;;;2.67;2.47;;;34.70;33.30;;;;;;5016771;28;20463;-83
2022/08/30 12:06:40;;;;;;;2.67;2.47;;;34.70;32.90;;;;;;5008966;28;20458;-83
2022/08/30 12:09:10;;;;;;;2.33;2.13;;;34.40;33.10;;;;;;5012982;28;20442;-83
2022/08/30 12:11:37;;;;;;;3.30;2.50;;;34.80;32.90;;;;;;5014065;28;21073;-83
2022/08/30 12:14:05;;;;;;;3.63;2.70;;;35.00;32.50;;;;;;5010356;28;20826;-83
2022/08/30 12:19:31;;;;;;;3.73;2.30;;;35.20;32.60;;;;;;5018642;28;20458;-84
2022/08/30 12:22:04;;;;;;;2.80;2.60;;;34.60;32.70;;;;;;5017265;28;20624;-82
2022/08/30 12:24:40;;;;;;;5.67;3.00;;;34.10;33.30;;;;;;5019785;28;20442;-83
2022/08/30 12:27:29;;;;;;;5.20;2.60;;;33.80;33.70;;;;;;5021798;28;20485;-82
2022/08/30 12:30:03;;;;;;;2.67;2.47;;;33.30;34.60;;;;;;5019451;28;20477;-82
2022/08/30 12:32:31;;;;;;;2.90;2.60;;;33.00;34.90;;;;;;5002348;28;20488;-83
2022/08/30 12:35:01;;;;;;;3.37;2.70;;;32.90;35.40;;;;;;5010521;28;20486;-84
2022/08/30 12:37:35;;;;;;;2.90;2.50;;;32.20;35.90;;;;;;5034770;28;20471;-85
2022/08/30 12:40:19;;;;;;;3.70;2.60;;;32.30;36.40;;;;;;5028413;28;20482;-83
2022/08/30 12:42:52;;;;;;;2.00;1.90;;;32.80;35.80;;;;;;5025020;28;20469;-83
2022/08/30 12:45:22;;;;;;;7.67;2.80;;;32.60;35.60;;;;;;5022934;28;20974;-83
2022/08/30 12:47:54;;;;;;;2.63;2.43;;;32.60;35.50;;;;;;5012881;28;20478;-81
2022/08/30 12:50:28;;;;;;;2.63;2.43;;;32.40;35.70;;;;;;5023083;28;20450;-83
2022/08/30 12:53:08;;;;;;;2.70;2.50;;;32.70;36.00;;;;;;5022986;28;20517;-84
2022/08/30 12:55:58;;;;;;;6.13;2.57;;;32.90;35.60;;;;;;5019104;28;20572;-84
2022/08/30 12:58:41;;;;;;;3.80;3.37;;;33.20;35.30;;;;;;5019604;28;20469;-84
2022/08/30 13:01:19;;;;;;;2.53;2.33;;;34.00;34.20;;;;;;5021025;28;20556;-83
2022/08/30 13:04:10;;;;;;;2.53;2.30;;;34.00;34.10;;;;;;5023431;28;20546;-84
2022/08/30 13:06:49;;;;;;;4.70;2.73;;;33.80;34.10;;;;;;5021341;28;20502;-84
2022/08/30 13:09:23;;;;;;;2.90;2.60;;;33.90;34.00;;;;;;5024703;28;20457;-83
2022/08/30 13:11:50;;;;;;;2.80;2.60;;;34.30;33.20;;;;;;5023260;28;21018;-83
2022/08/30 13:14:29;;;;;;;4.47;2.60;;;34.40;33.10;;;;;;5024267;28;20442;-83
2022/08/30 13:17:17;;;;;;;3.70;2.50;;;34.10;33.50;;;;;;5043058;28;20968;-84
2022/08/30 13:19:56;;;;;;;3.17;2.93;;;35.00;32.80;;;;;;5025820;28;20968;-83
2022/08/30 13:22:32;;;;;;;4.27;3.10;;;34.80;32.80;;;;;;5022561;28;20450;-83